createdAt,value
2019-05-19T00:02:02.488Z,15.40
2019-05-19T00:04:32.890Z,10.47
2019-05-19T00:07:03.237Z,10.40
2019-05-19T00:09:33.548Z,10.33
2019-05-19T00:12:03.870Z,7.47
2019-05-19T00:14:35.328Z,10.30
2019-05-19T00:17:06.158Z,11.33
2019-05-19T00:19:38.327Z,9.53
2019-05-19T00:22:08.681Z,12.13
2019-05-19T00:24:38.940Z,6.60
2019-05-19T00:27:09.330Z,8.17
2019-05-19T00:29:39.764Z,7.63
2019-05-19T00:32:10.161Z,8.93
2019-05-19T00:34:40.482Z,7.90
2019-05-19T00:37:10.782Z,14.93
2019-05-19T00:39:41.060Z,8.17
2019-05-19T00:42:11.374Z,9.90
2019-05-19T00:44:41.841Z,9.53
2019-05-19T00:47:18.285Z,9.73
2019-05-19T00:49:48.675Z,9.00
2019-05-19T00:52:18.980Z,12.60
2019-05-19T00:54:49.765Z,7.90
2019-05-19T00:57:21.246Z,11.50
2019-05-19T00:59:52.172Z,9.07
2019-05-19T01:02:22.471Z,10.93
2019-05-19T01:04:52.892Z,12.93
2019-05-19T01:07:23.197Z,10.03
2019-05-19T01:09:53.511Z,8.13
2019-05-19T01:12:23.813Z,9.00
2019-05-19T01:14:54.132Z,8.63
2019-05-19T01:17:24.688Z,13.50
2019-05-19T01:19:56.335Z,9.40
2019-05-19T01:22:26.927Z,9.70
2019-05-19T01:24:57.320Z,8.13
2019-05-19T01:27:27.628Z,9.40
2019-05-19T01:29:58.920Z,7.83
2019-05-19T01:32:29.564Z,8.53
2019-05-19T01:34:59.900Z,10.00
2019-05-19T01:37:30.244Z,9.73
2019-05-19T01:40:00.569Z,10.47
2019-05-19T01:42:30.860Z,11.40
2019-05-19T01:45:01.209Z,9.27
2019-05-19T01:47:31.952Z,7.97
2019-05-19T01:50:17.048Z,16.23
2019-05-19T01:52:34.234Z,11.53
2019-05-19T01:55:04.638Z,12.10
2019-05-19T01:57:36.028Z,9.83
2019-05-19T02:00:06.760Z,9.43
2019-05-19T02:02:37.224Z,8.70
2019-05-19T02:05:07.869Z,11.67
2019-05-19T02:07:38.534Z,13.57
2019-05-19T02:10:09.405Z,11.07
2019-05-19T02:12:39.772Z,9.27
2019-05-19T02:15:10.312Z,12.20
2019-05-19T02:17:40.656Z,8.90
2019-05-19T02:20:12.268Z,8.93
2019-05-19T02:22:42.638Z,10.63
2019-05-19T02:25:13.764Z,7.80
2019-05-19T02:27:44.459Z,12.47
2019-05-19T02:30:15.587Z,12.70
2019-05-19T02:32:45.947Z,11.63
2019-05-19T02:35:16.542Z,11.67
2019-05-19T02:37:47.226Z,13.17
2019-05-19T02:40:18.253Z,8.53
2019-05-19T02:42:50.872Z,11.33
2019-05-19T02:45:21.176Z,11.60
2019-05-19T02:47:53.408Z,11.47
2019-05-19T02:50:25.453Z,13.60
2019-05-19T02:52:58.621Z,9.00
2019-05-19T02:55:29.193Z,9.23
2019-05-19T02:58:01.003Z,12.57
2019-05-19T03:00:39.279Z,9.40
2019-05-19T03:03:09.567Z,6.43
2019-05-19T03:05:39.940Z,8.23
2019-05-19T03:08:10.230Z,6.77
2019-05-19T03:10:40.573Z,8.67
2019-05-19T03:13:10.863Z,13.23
2019-05-19T03:15:41.221Z,11.33
2019-05-19T03:18:11.503Z,9.33
2019-05-19T03:20:42.173Z,9.00
2019-05-19T03:23:12.473Z,16.13
2019-05-19T03:25:44.224Z,7.97
2019-05-19T03:28:14.819Z,9.13
2019-05-19T03:31:14.548Z,10.27
2019-05-19T03:33:46.845Z,10.40
2019-05-19T03:36:18.184Z,7.17
2019-05-19T03:38:48.465Z,8.00
2019-05-19T03:41:21.601Z,9.60
2019-05-19T03:43:51.903Z,11.13
2019-05-19T03:46:22.253Z,11.70
2019-05-19T03:48:52.593Z,13.80
2019-05-19T03:51:30.652Z,14.03
2019-05-19T03:53:56.811Z,13.47
2019-05-19T03:56:27.172Z,11.83
2019-05-19T03:58:57.511Z,9.53
2019-05-19T04:01:27.809Z,9.97
2019-05-19T04:03:58.277Z,15.43
2019-05-19T04:06:28.672Z,11.93
2019-05-19T04:08:59.953Z,13.40
2019-05-19T04:11:30.657Z,10.53
2019-05-19T04:14:00.982Z,15.20
2019-05-19T04:16:31.638Z,12.10
2019-05-19T04:19:01.975Z,12.73
2019-05-19T04:21:47.565Z,11.77
2019-05-19T04:24:04.692Z,11.50
2019-05-19T04:26:35.051Z,16.13
2019-05-19T04:29:06.417Z,14.10
2019-05-19T04:31:37.145Z,13.00
2019-05-19T04:34:07.453Z,15.37
2019-05-19T04:36:37.809Z,13.53
2019-05-19T04:39:08.541Z,13.77
2019-05-19T04:41:46.671Z,12.20
2019-05-19T04:44:16.972Z,10.03
2019-05-19T04:46:47.664Z,11.77
2019-05-19T04:49:17.977Z,10.70
2019-05-19T04:52:05.527Z,12.30
2019-05-19T04:54:20.827Z,11.93
2019-05-19T04:56:52.265Z,11.97
2019-05-19T04:59:22.677Z,13.20
2019-05-19T05:01:53.109Z,12.93
2019-05-19T05:04:29.081Z,13.97
2019-05-19T05:06:55.962Z,8.67
2019-05-19T05:09:27.370Z,11.70
2019-05-19T05:11:57.692Z,8.30
2019-05-19T05:14:28.048Z,13.93
2019-05-19T05:16:58.380Z,11.93
2019-05-19T05:19:28.682Z,11.47
2019-05-19T05:21:59.006Z,8.27
2019-05-19T05:24:29.285Z,11.40
2019-05-19T05:26:59.612Z,8.70
2019-05-19T05:29:30.293Z,10.97
2019-05-19T05:32:00.682Z,10.30
2019-05-19T05:34:31.097Z,12.80
2019-05-19T05:37:01.418Z,8.87
2019-05-19T05:39:31.727Z,9.60
2019-05-19T05:42:02.079Z,11.77
2019-05-19T05:44:32.455Z,15.03
2019-05-19T05:47:02.794Z,15.03
2019-05-19T05:49:33.142Z,8.87
2019-05-19T05:52:03.854Z,14.43
2019-05-19T05:54:34.244Z,11.47
2019-05-19T05:57:04.674Z,9.93
2019-05-19T05:59:35.023Z,10.10
2019-05-19T06:02:05.432Z,10.73
2019-05-19T06:04:35.780Z,9.53
2019-05-19T06:09:49.416Z,11.77
2019-05-19T06:12:19.714Z,7.90
2019-05-19T06:14:50.358Z,8.33
2019-05-19T06:17:20.665Z,9.40
2019-05-19T06:19:51.000Z,9.93
2019-05-19T06:22:22.360Z,11.10
2019-05-19T06:24:53.018Z,9.63
2019-05-19T06:27:23.401Z,22.07
2019-05-19T06:29:53.766Z,10.63
2019-05-19T06:32:33.280Z,10.40
2019-05-19T06:35:03.661Z,8.90
2019-05-19T06:37:34.022Z,12.07
2019-05-19T06:40:04.671Z,13.17
2019-05-19T06:42:35.044Z,11.30
2019-05-19T06:45:05.916Z,8.47
2019-05-19T06:47:36.362Z,9.43
2019-05-19T06:50:07.570Z,10.87
2019-05-19T06:52:39.105Z,8.67
2019-05-19T06:55:11.474Z,11.47
2019-05-19T06:57:41.904Z,9.70
2019-05-19T07:00:12.882Z,14.10
2019-05-19T07:02:43.656Z,6.40
2019-05-19T07:05:14.587Z,11.13
2019-05-19T07:07:44.950Z,11.33
2019-05-19T07:10:15.358Z,10.50
2019-05-19T07:12:46.064Z,8.50
2019-05-19T07:15:16.609Z,10.73
2019-05-19T07:17:46.981Z,9.80
2019-05-19T07:20:17.308Z,8.20
2019-05-19T07:22:48.822Z,12.13
2019-05-19T07:25:19.122Z,9.30
2019-05-19T07:27:49.456Z,5.60
2019-05-19T07:30:19.970Z,12.47
2019-05-19T07:32:50.342Z,9.93
2019-05-19T07:35:20.649Z,5.80
2019-05-19T07:37:51.795Z,8.47
2019-05-19T07:40:22.136Z,13.93
2019-05-19T07:42:52.476Z,10.97
2019-05-19T07:45:22.888Z,8.83
2019-05-19T07:47:53.492Z,12.07
2019-05-19T07:50:23.890Z,7.37
2019-05-19T07:52:54.243Z,8.97
2019-05-19T07:55:24.557Z,12.07
2019-05-19T07:57:55.026Z,6.53
2019-05-19T08:00:25.330Z,7.23
2019-05-19T08:02:55.771Z,7.60
2019-05-19T08:05:26.076Z,8.23
2019-05-19T08:07:56.421Z,6.80
2019-05-19T08:10:27.806Z,8.33
2019-05-19T08:13:02.050Z,9.93
2019-05-19T08:15:32.338Z,8.23
2019-05-19T08:18:05.390Z,7.13
2019-05-19T08:20:35.714Z,8.80
2019-05-19T08:23:06.985Z,9.10
2019-05-19T08:25:37.298Z,9.07
2019-05-19T08:28:09.131Z,9.53
2019-05-19T08:30:39.740Z,7.77
2019-05-19T08:33:10.112Z,7.13
2019-05-19T08:35:40.427Z,10.10
2019-05-19T08:38:10.838Z,8.10
2019-05-19T08:40:41.148Z,13.80
2019-05-19T08:43:11.495Z,8.90
2019-05-19T08:45:41.863Z,8.87
2019-05-19T08:48:12.248Z,7.00
2019-05-19T08:50:42.552Z,14.70
2019-05-19T08:53:14.128Z,8.00
2019-05-19T08:55:44.510Z,8.77
2019-05-19T08:58:14.946Z,7.20
2019-05-19T09:00:45.307Z,6.80
2019-05-19T09:03:15.676Z,8.27
2019-05-19T09:05:47.914Z,8.70
2019-05-19T09:08:18.098Z,8.47
2019-05-19T09:10:48.606Z,7.00
2019-05-19T09:13:18.943Z,8.80
2019-05-19T09:15:49.262Z,8.90
2019-05-19T09:18:19.637Z,8.77
2019-05-19T09:20:49.932Z,9.77
2019-05-19T09:23:21.038Z,8.83
2019-05-19T09:26:10.427Z,8.07
2019-05-19T09:28:41.102Z,7.10
2019-05-19T09:31:11.858Z,7.47
2019-05-19T09:33:42.184Z,12.00
2019-05-19T09:36:12.531Z,7.53
2019-05-19T09:38:42.833Z,7.03
2019-05-19T09:41:13.213Z,8.13
2019-05-19T09:43:43.629Z,9.10
2019-05-19T09:46:14.853Z,9.10
2019-05-19T09:48:45.495Z,7.70
2019-05-19T09:51:15.841Z,8.93
2019-05-19T09:53:46.231Z,8.93
2019-05-19T09:56:16.614Z,10.73
2019-05-19T09:58:47.006Z,7.50
2019-05-19T10:01:17.593Z,8.77
2019-05-19T10:03:49.044Z,7.23
2019-05-19T10:06:19.453Z,7.60
2019-05-19T10:09:02.133Z,7.43
2019-05-19T10:12:06.088Z,7.53
2019-05-19T10:14:36.545Z,9.53
2019-05-19T10:17:06.907Z,8.07
2019-05-19T10:19:37.219Z,9.13
2019-05-19T10:22:07.647Z,8.53
2019-05-19T10:24:39.042Z,11.53
2019-05-19T10:27:09.387Z,7.90
2019-05-19T10:29:39.756Z,7.80
2019-05-19T10:32:10.116Z,9.77
2019-05-19T10:34:40.801Z,10.80
2019-05-19T10:37:11.224Z,7.87
2019-05-19T10:39:41.582Z,7.00
2019-05-19T10:42:13.048Z,10.17
2019-05-19T10:44:43.450Z,9.07
2019-05-19T10:47:13.806Z,6.97
2019-05-19T10:49:44.165Z,9.50
2019-05-19T10:52:14.598Z,9.03
2019-05-19T10:54:45.911Z,12.00
2019-05-19T10:57:16.220Z,8.83
2019-05-19T10:59:47.214Z,7.30
2019-05-19T11:02:17.528Z,9.60
2019-05-19T11:04:48.318Z,6.93
2019-05-19T11:07:18.672Z,9.07
2019-05-19T11:09:49.035Z,6.17
2019-05-19T11:12:20.293Z,7.47
2019-05-19T11:14:50.625Z,8.43
2019-05-19T11:17:21.002Z,12.77
2019-05-19T11:19:51.294Z,8.30
2019-05-19T11:22:22.065Z,14.30
2019-05-19T11:24:52.957Z,7.70
2019-05-19T11:27:23.286Z,7.40
2019-05-19T11:29:53.589Z,6.97
2019-05-19T11:32:24.034Z,8.27
2019-05-19T11:34:54.378Z,9.40
2019-05-19T11:37:24.782Z,9.67
2019-05-19T11:39:55.075Z,9.43
2019-05-19T11:42:25.500Z,8.00
2019-05-19T11:44:55.804Z,8.67
2019-05-19T11:47:26.125Z,8.57
2019-05-19T11:49:56.421Z,8.53
2019-05-19T11:52:26.765Z,8.63
2019-05-19T11:54:58.172Z,9.27
2019-05-19T11:57:28.521Z,9.30
2019-05-19T11:59:58.872Z,6.93
2019-05-19T12:02:29.207Z,8.87
2019-05-19T12:04:59.633Z,7.50
2019-05-19T12:07:29.944Z,9.03
2019-05-19T12:10:00.381Z,8.47
2019-05-19T12:12:30.710Z,8.53
2019-05-19T12:15:01.042Z,7.43
2019-05-19T12:17:31.432Z,8.00
2019-05-19T12:20:01.782Z,7.63
2019-05-19T12:22:32.102Z,8.83
2019-05-19T12:25:03.515Z,9.83
2019-05-19T12:27:33.876Z,8.23
2019-05-19T12:30:04.312Z,9.47
2019-05-19T12:32:34.657Z,8.03
2019-05-19T12:35:05.261Z,11.13
2019-05-19T12:37:35.754Z,10.00
2019-05-19T12:40:06.193Z,7.33
2019-05-19T12:42:36.731Z,8.13
2019-05-19T12:45:09.863Z,9.20
2019-05-19T12:47:41.400Z,7.67
2019-05-19T12:50:12.098Z,11.00
2019-05-19T12:52:44.747Z,9.90
2019-05-19T12:55:16.198Z,10.17
2019-05-19T12:57:46.622Z,10.03
2019-05-19T13:00:17.440Z,10.70
2019-05-19T13:02:47.856Z,8.10
2019-05-19T13:05:18.364Z,11.90
2019-05-19T13:07:48.783Z,9.87
2019-05-19T13:10:19.163Z,7.90
2019-05-19T13:12:49.470Z,8.80
2019-05-19T13:15:20.154Z,8.73
2019-05-19T13:17:50.488Z,8.50
2019-05-19T13:20:20.940Z,10.67
2019-05-19T13:22:51.274Z,9.97
2019-05-19T13:25:22.924Z,8.83
2019-05-19T13:27:53.254Z,9.03
2019-05-19T13:30:23.572Z,8.33
2019-05-19T13:32:54.338Z,10.40
2019-05-19T13:35:24.707Z,7.67
2019-05-19T13:37:55.029Z,9.97
2019-05-19T13:40:25.360Z,11.07
2019-05-19T13:42:55.742Z,8.17
2019-05-19T13:45:27.207Z,10.30
2019-05-19T13:47:57.591Z,8.67
2019-05-19T13:50:27.922Z,9.27
2019-05-19T13:52:58.226Z,10.13
2019-05-19T13:55:29.622Z,8.90
2019-05-19T13:58:03.425Z,10.23
2019-05-19T14:00:32.323Z,9.43
2019-05-19T14:03:02.699Z,10.13
2019-05-19T14:05:33.107Z,9.83
2019-05-19T14:08:03.443Z,7.23
2019-05-19T14:10:34.523Z,10.30
2019-05-19T14:13:04.820Z,7.70
2019-05-19T14:15:35.513Z,8.10
2019-05-19T14:18:07.953Z,7.90
2019-05-19T14:20:38.217Z,9.30
2019-05-19T14:23:09.568Z,8.63
2019-05-19T14:25:42.084Z,9.70
2019-05-19T14:28:12.464Z,9.83
2019-05-19T14:30:42.755Z,8.20
2019-05-19T14:33:14.477Z,9.47
2019-05-19T14:35:44.788Z,8.43
2019-05-19T14:38:15.131Z,9.20
2019-05-19T14:40:45.418Z,10.23
2019-05-19T14:43:16.697Z,9.10
2019-05-19T14:45:47.033Z,8.70
2019-05-19T14:48:17.418Z,8.37
2019-05-19T14:50:47.737Z,8.20
2019-05-19T14:53:18.084Z,8.70
2019-05-19T14:55:50.154Z,10.67
2019-05-19T14:58:20.495Z,8.70
2019-05-19T15:00:50.853Z,9.30
2019-05-19T15:03:21.177Z,9.20
2019-05-19T15:05:51.616Z,11.70
2019-05-19T15:08:22.080Z,8.87
2019-05-19T15:10:52.485Z,7.60
2019-05-19T15:13:22.936Z,8.93
2019-05-19T15:15:53.431Z,8.57
2019-05-19T15:18:23.722Z,9.60
2019-05-19T15:20:54.058Z,12.40
2019-05-19T15:23:24.441Z,9.83
2019-05-19T15:25:56.655Z,8.53
2019-05-19T15:28:27.055Z,8.53
2019-05-19T15:30:57.378Z,8.57
2019-05-19T15:33:28.161Z,10.10
2019-05-19T15:35:58.493Z,11.57
2019-05-19T15:38:28.795Z,9.07
2019-05-19T15:41:00.216Z,10.00
2019-05-19T15:43:30.564Z,9.87
2019-05-19T15:46:01.008Z,11.20
2019-05-19T15:48:31.335Z,12.30
2019-05-19T15:51:01.717Z,9.80
2019-05-19T15:53:32.023Z,10.83
2019-05-19T15:56:03.388Z,10.30
2019-05-19T15:58:33.703Z,18.77
2019-05-19T16:01:04.067Z,11.20
2019-05-19T16:03:34.356Z,6.97
2019-05-19T16:06:05.842Z,8.20
2019-05-19T16:08:36.154Z,13.00
2019-05-19T16:11:06.537Z,8.97
2019-05-19T16:13:48.661Z,7.50
2019-05-19T16:16:19.053Z,7.27
2019-05-19T16:18:49.407Z,7.80
2019-05-19T16:21:20.150Z,8.10
2019-05-19T16:23:50.636Z,10.57
2019-05-19T16:26:21.987Z,23.10
2019-05-19T16:28:52.308Z,13.53
2019-05-19T16:31:22.699Z,14.90
2019-05-19T16:33:52.997Z,15.63
2019-05-19T16:36:23.334Z,14.60
2019-05-19T16:38:53.654Z,12.17
2019-05-19T16:41:23.977Z,8.37
2019-05-19T16:43:54.319Z,9.17
2019-05-19T16:46:24.716Z,15.57
2019-05-19T16:48:55.129Z,8.20
2019-05-19T16:51:25.451Z,10.73
2019-05-19T16:54:00.102Z,7.20
2019-05-19T16:56:31.506Z,8.07
2019-05-19T16:59:04.138Z,11.50
2019-05-19T17:01:35.604Z,12.50
2019-05-19T17:04:05.956Z,9.77
2019-05-19T17:06:36.379Z,7.10
2019-05-19T17:09:08.588Z,9.20
2019-05-19T17:11:39.362Z,16.43
2019-05-19T17:14:09.689Z,8.33
2019-05-19T17:16:40.031Z,8.13
2019-05-19T17:19:10.386Z,12.03
2019-05-19T17:21:40.708Z,7.43
2019-05-19T17:24:11.035Z,9.80
2019-05-19T17:26:41.382Z,7.07
2019-05-19T17:29:11.674Z,10.63
2019-05-19T17:31:42.026Z,9.63
2019-05-19T17:34:12.882Z,8.07
2019-05-19T17:36:43.314Z,8.70
2019-05-19T17:39:13.748Z,7.70
2019-05-19T17:41:44.136Z,8.20
2019-05-19T17:44:14.477Z,7.83
2019-05-19T17:46:45.039Z,9.53
2019-05-19T17:49:15.726Z,10.00
2019-05-19T17:51:46.128Z,7.87
2019-05-19T17:54:16.415Z,8.43
2019-05-19T17:56:47.985Z,8.97
2019-05-19T17:59:18.402Z,11.93
2019-05-19T18:01:48.828Z,8.23
2019-05-19T18:04:19.105Z,10.73
2019-05-19T18:06:49.468Z,11.23
2019-05-19T18:09:20.896Z,8.93
2019-05-19T18:11:51.200Z,9.93
2019-05-19T18:14:21.587Z,14.60
2019-05-19T18:16:52.406Z,9.73
2019-05-19T18:19:22.796Z,11.10
2019-05-19T18:21:53.483Z,13.77
2019-05-19T18:24:42.832Z,14.13
2019-05-19T18:27:13.178Z,14.43
2019-05-19T18:29:43.561Z,14.93
2019-05-19T18:32:13.879Z,19.77
2019-05-19T18:34:44.271Z,17.60
2019-05-19T18:37:14.575Z,29.50
2019-05-19T18:39:44.939Z,21.53
2019-05-19T18:42:15.376Z,24.77
2019-05-19T18:44:45.702Z,40.13
2019-05-19T18:47:16.029Z,36.40
2019-05-19T18:49:46.390Z,32.73
2019-05-19T18:52:16.795Z,41.37
2019-05-19T18:54:47.136Z,34.33
2019-05-19T18:57:17.512Z,41.57
2019-05-19T18:59:48.046Z,28.37
2019-05-19T19:02:18.503Z,30.37
2019-05-19T19:04:48.865Z,30.43
2019-05-19T19:07:19.259Z,29.90
2019-05-19T19:09:49.585Z,22.63
2019-05-19T19:12:19.956Z,26.10
2019-05-19T19:14:50.292Z,41.20
2019-05-19T19:17:20.673Z,22.63
2019-05-19T19:19:50.992Z,25.13
2019-05-19T19:22:21.366Z,21.03
2019-05-19T19:24:51.659Z,18.50
2019-05-19T19:27:22.040Z,22.90
2019-05-19T19:30:03.105Z,21.10
2019-05-19T19:32:25.954Z,17.00
2019-05-19T19:34:56.282Z,13.63
2019-05-19T19:37:26.685Z,15.47
2019-05-19T19:39:56.968Z,13.37
2019-05-19T19:42:27.353Z,11.27
2019-05-19T19:44:57.732Z,14.87
2019-05-19T19:47:28.043Z,13.17
2019-05-19T19:49:58.414Z,15.40
2019-05-19T19:52:28.752Z,15.17
2019-05-19T19:54:59.136Z,16.83
2019-05-19T19:57:30.475Z,15.27
2019-05-19T20:00:15.801Z,15.63
2019-05-19T20:02:35.492Z,17.83
2019-05-19T20:05:06.065Z,14.67
2019-05-19T20:07:36.871Z,18.43
2019-05-19T20:10:09.431Z,13.87
2019-05-19T20:12:40.185Z,18.80
2019-05-19T20:15:16.159Z,18.63
2019-05-19T20:17:46.553Z,13.00
2019-05-19T20:20:17.008Z,13.57
2019-05-19T20:22:51.236Z,13.13
2019-05-19T20:25:21.948Z,11.40
2019-05-19T20:27:52.773Z,14.90
2019-05-19T20:30:35.146Z,13.93
2019-05-19T20:32:55.986Z,13.93
2019-05-19T20:35:27.175Z,14.90
2019-05-19T20:37:57.796Z,13.03
2019-05-19T20:40:28.490Z,13.40
2019-05-19T20:42:59.081Z,11.90
2019-05-19T20:45:31.301Z,14.07
2019-05-19T20:48:04.842Z,17.80
2019-05-19T20:50:36.058Z,10.40
2019-05-19T20:53:06.908Z,11.00
2019-05-19T20:55:37.487Z,12.50
2019-05-19T20:58:08.563Z,11.90
2019-05-19T21:00:49.850Z,13.00
2019-05-19T21:03:11.259Z,11.60
2019-05-19T21:05:42.080Z,9.83
2019-05-19T21:08:12.759Z,8.60
2019-05-19T21:10:43.284Z,10.33
2019-05-19T21:13:14.928Z,8.00
2019-05-19T21:15:46.873Z,9.20
2019-05-19T21:18:18.935Z,12.97
2019-05-19T21:20:49.460Z,15.97
2019-05-19T21:23:20.122Z,11.47
2019-05-19T21:25:50.685Z,11.50
2019-05-19T21:28:21.749Z,14.67
2019-05-19T21:31:04.981Z,12.87
2019-05-19T21:33:24.762Z,9.77
2019-05-19T21:35:55.312Z,10.03
2019-05-19T21:38:25.921Z,10.57
2019-05-19T21:40:57.526Z,11.17
2019-05-19T21:43:28.917Z,9.90
2019-05-19T21:46:00.315Z,10.57
2019-05-19T21:48:34.950Z,11.20
2019-05-19T21:51:05.314Z,8.97
2019-05-19T21:53:38.719Z,9.17
2019-05-19T21:56:09.808Z,15.80
2019-05-19T21:58:40.491Z,11.03
2019-05-19T22:01:22.732Z,8.60
2019-05-19T22:03:47.207Z,8.80
2019-05-19T22:06:19.764Z,11.33
2019-05-19T22:08:50.210Z,11.07
2019-05-19T22:11:20.612Z,15.90
2019-05-19T22:13:51.232Z,8.57
2019-05-19T22:16:21.838Z,10.07
2019-05-19T22:18:52.412Z,9.40
2019-05-19T22:21:22.760Z,10.43
2019-05-19T22:23:53.345Z,13.30
2019-05-19T22:26:23.985Z,14.93
2019-05-19T22:28:54.469Z,9.03
2019-05-19T22:31:36.613Z,10.17
2019-05-19T22:34:01.409Z,9.30
2019-05-19T22:36:32.403Z,9.67
2019-05-19T22:39:03.236Z,11.50
2019-05-19T22:41:35.062Z,10.20
2019-05-19T22:44:06.277Z,9.03
2019-05-19T22:46:37.481Z,8.83
2019-05-19T22:49:09.143Z,6.83
2019-05-19T22:51:39.504Z,9.10
2019-05-19T22:54:11.042Z,13.90
2019-05-19T22:56:41.836Z,6.67
2019-05-19T22:59:19.897Z,7.47
2019-05-19T23:01:51.906Z,8.87
2019-05-19T23:04:18.508Z,12.97
2019-05-19T23:06:48.817Z,9.13
2019-05-19T23:09:19.569Z,8.07
2019-05-19T23:11:50.622Z,7.50
2019-05-19T23:14:21.929Z,8.20
2019-05-19T23:16:52.536Z,7.50
2019-05-19T23:19:24.607Z,9.63
2019-05-19T23:21:55.398Z,12.17
2019-05-19T23:24:26.115Z,7.70
2019-05-19T23:26:56.438Z,7.17
2019-05-19T23:29:26.774Z,9.90
2019-05-19T23:32:06.825Z,12.00
2019-05-19T23:34:33.067Z,10.80
2019-05-19T23:37:06.669Z,8.53
2019-05-19T23:39:37.636Z,11.07
2019-05-19T23:42:07.995Z,9.03
2019-05-19T23:44:38.456Z,9.53
2019-05-19T23:47:12.343Z,10.43
2019-05-19T23:49:44.824Z,8.83
2019-05-19T23:52:15.216Z,12.13
2019-05-19T23:54:47.135Z,8.23
2019-05-19T23:57:19.258Z,7.23
2019-05-19T23:59:50.870Z,11.60
